createdAt,value
2019-05-13T00:02:04.943Z,8.08
2019-05-13T00:04:35.112Z,8.05
2019-05-13T00:07:05.160Z,8.04
2019-05-13T00:09:35.234Z,8.03
2019-05-13T00:12:05.408Z,8.06
2019-05-13T00:14:35.576Z,8.04
2019-05-13T00:17:05.640Z,8.05
2019-05-13T00:19:35.729Z,8.10
2019-05-13T00:22:05.801Z,8.08
2019-05-13T00:24:35.892Z,8.07
2019-05-13T00:27:05.963Z,8.05
2019-05-13T00:29:36.465Z,8.07
2019-05-13T00:32:06.526Z,8.08
2019-05-13T00:34:36.625Z,8.08
2019-05-13T00:37:10.808Z,8.06
2019-05-13T00:39:38.512Z,8.09
2019-05-13T00:42:08.552Z,8.05
2019-05-13T00:44:38.645Z,8.02
2019-05-13T00:47:08.701Z,8.03
2019-05-13T00:49:38.795Z,8.03
2019-05-13T00:52:08.874Z,8.01
2019-05-13T00:54:39.269Z,8.02
2019-05-13T00:57:09.324Z,8.01
2019-05-13T00:59:39.420Z,7.99
2019-05-13T01:02:09.491Z,8.00
2019-05-13T01:04:39.570Z,7.99
2019-05-13T01:07:22.871Z,7.99
2019-05-13T01:09:41.519Z,8.00
2019-05-13T01:12:13.405Z,8.00
2019-05-13T01:14:44.577Z,7.99
2019-05-13T01:17:14.639Z,7.99
2019-05-13T01:19:45.631Z,7.98
2019-05-13T01:22:15.687Z,7.94
2019-05-13T01:24:45.784Z,7.94
2019-05-13T01:27:15.844Z,7.94
2019-05-13T01:29:45.946Z,7.90
2019-05-13T01:32:17.341Z,7.91
2019-05-13T01:34:47.433Z,7.87
2019-05-13T01:37:17.488Z,7.82
2019-05-13T01:39:47.583Z,7.82
2019-05-13T01:42:17.649Z,7.77
2019-05-13T01:44:47.745Z,7.79
2019-05-13T01:47:17.813Z,7.74
2019-05-13T01:49:47.930Z,7.78
2019-05-13T01:52:19.335Z,7.75
2019-05-13T01:57:40.333Z,7.79
2019-05-13T02:00:10.901Z,7.72
2019-05-13T02:02:40.975Z,7.71
2019-05-13T02:05:11.024Z,7.66
2019-05-13T02:07:56.094Z,7.65
2019-05-13T02:10:15.314Z,7.65
2019-05-13T02:12:45.386Z,7.67
2019-05-13T02:15:15.726Z,7.68
2019-05-13T02:17:45.800Z,7.64
2019-05-13T02:20:15.835Z,7.62
2019-05-13T02:22:45.903Z,7.67
2019-05-13T02:25:15.933Z,7.66
2019-05-13T02:27:46.000Z,7.63
2019-05-13T02:30:16.675Z,7.61
2019-05-13T02:32:46.884Z,7.68
2019-05-13T02:35:16.926Z,7.69
2019-05-13T02:37:46.985Z,7.72
2019-05-13T02:40:17.023Z,7.74
2019-05-13T02:42:47.103Z,7.76
2019-05-13T02:45:17.146Z,7.73
2019-05-13T02:47:47.210Z,7.77
2019-05-13T02:50:17.451Z,7.79
2019-05-13T02:52:47.613Z,7.74
2019-05-13T02:55:17.647Z,7.75
2019-05-13T02:57:47.754Z,7.72
2019-05-13T03:00:17.792Z,7.70
2019-05-13T03:02:47.893Z,7.69
2019-05-13T03:05:18.330Z,7.65
2019-05-13T03:07:48.714Z,7.59
2019-05-13T03:10:18.854Z,7.50
2019-05-13T03:12:48.947Z,7.48
2019-05-13T03:15:18.999Z,7.45
2019-05-13T03:17:53.765Z,7.51
2019-05-13T03:20:23.794Z,7.51
2019-05-13T03:22:53.893Z,7.51
2019-05-13T03:25:23.958Z,7.49
2019-05-13T03:27:54.508Z,7.39
2019-05-13T03:30:26.184Z,7.35
2019-05-13T03:33:02.054Z,7.40
2019-05-13T03:35:28.403Z,7.38
2019-05-13T03:37:58.615Z,7.37
2019-05-13T03:40:28.957Z,7.35
2019-05-13T03:43:02.676Z,7.37
2019-05-13T03:45:34.277Z,7.34
2019-05-13T03:48:04.669Z,7.32
2019-05-13T03:50:35.066Z,7.32
2019-05-13T03:53:06.731Z,7.35
2019-05-13T03:55:36.776Z,7.34
2019-05-13T03:58:08.511Z,7.30
2019-05-13T04:00:38.575Z,7.30
2019-05-13T04:03:08.676Z,7.31
2019-05-13T04:05:38.848Z,7.32
2019-05-13T04:08:08.961Z,7.34
2019-05-13T04:10:41.951Z,7.39
2019-05-13T04:13:12.425Z,7.64
2019-05-13T04:15:43.551Z,7.73
2019-05-13T04:18:14.147Z,7.85
2019-05-13T04:20:44.210Z,7.80
2019-05-13T04:23:14.307Z,7.94
2019-05-13T04:25:44.949Z,8.21
2019-05-13T04:28:15.459Z,8.15
2019-05-13T04:30:45.529Z,8.20
2019-05-13T04:33:15.636Z,8.19
2019-05-13T04:35:45.812Z,8.15
2019-05-13T04:38:15.923Z,8.18
2019-05-13T04:40:46.002Z,8.32
2019-05-13T04:43:16.100Z,8.51
2019-05-13T04:45:46.294Z,8.62
2019-05-13T04:48:17.183Z,8.65
2019-05-13T04:50:47.257Z,8.76
2019-05-13T04:53:17.297Z,9.10
2019-05-13T04:55:47.406Z,9.00
2019-05-13T04:58:17.449Z,8.89
2019-05-13T05:01:02.124Z,9.22
2019-05-13T05:03:48.946Z,9.08
2019-05-13T05:06:42.392Z,9.28
2019-05-13T05:09:29.518Z,9.38
2019-05-13T05:12:17.456Z,9.43
2019-05-13T05:15:07.225Z,9.30
2019-05-13T05:18:03.038Z,9.41
2019-05-13T05:20:35.957Z,9.74
2019-05-13T05:23:17.890Z,10.11
2019-05-13T05:26:01.270Z,10.21
2019-05-13T05:28:43.682Z,10.20
2019-05-13T05:31:32.677Z,10.24
2019-05-13T05:34:23.726Z,10.17
2019-05-13T05:37:05.516Z,10.09
2019-05-13T05:39:38.293Z,9.89
2019-05-13T05:42:11.216Z,9.90
2019-05-13T05:44:44.371Z,9.73
2019-05-13T05:47:16.623Z,9.75
2019-05-13T05:49:48.085Z,9.67
2019-05-13T05:52:21.269Z,9.68
2019-05-13T05:54:53.391Z,9.65
2019-05-13T05:57:25.963Z,9.68
2019-05-13T05:59:57.029Z,9.83
2019-05-13T06:02:28.160Z,9.92
2019-05-13T06:04:58.528Z,9.81
2019-05-13T06:07:29.063Z,9.71
2019-05-13T06:09:59.123Z,9.80
2019-05-13T06:12:31.517Z,9.91
2019-05-13T06:15:02.660Z,9.95
2019-05-13T06:17:32.861Z,10.02
2019-05-13T06:20:04.201Z,10.13
2019-05-13T06:22:34.623Z,10.15
2019-05-13T06:25:06.911Z,10.20
2019-05-13T06:27:36.947Z,10.18
2019-05-13T06:30:08.446Z,10.24
2019-05-13T06:32:38.481Z,10.36
2019-05-13T06:35:08.569Z,10.31
2019-05-13T06:37:38.700Z,10.05
2019-05-13T06:40:09.004Z,10.21
2019-05-13T06:42:41.569Z,10.02
2019-05-13T06:45:12.451Z,10.13
2019-05-13T06:47:42.649Z,10.09
2019-05-13T06:50:14.276Z,10.03
2019-05-13T06:52:44.337Z,9.95
2019-05-13T06:55:14.496Z,10.05
2019-05-13T06:57:44.538Z,9.97
2019-05-13T07:00:16.373Z,9.86
2019-05-13T07:02:46.447Z,9.78
2019-05-13T07:05:16.607Z,9.70
2019-05-13T07:07:46.693Z,9.82
2019-05-13T07:10:16.796Z,9.91
2019-05-13T07:12:46.865Z,9.92
2019-05-13T07:15:16.948Z,10.00
2019-05-13T07:17:47.016Z,10.11
2019-05-13T07:20:18.697Z,10.07
2019-05-13T07:22:48.970Z,10.00
2019-05-13T07:25:19.057Z,9.89
2019-05-13T07:27:51.400Z,10.06
2019-05-13T07:30:23.845Z,10.02
2019-05-13T07:32:53.917Z,10.03
2019-05-13T07:35:24.033Z,10.37
2019-05-13T07:37:54.316Z,10.44
2019-05-13T07:40:24.408Z,10.48
2019-05-13T07:42:54.488Z,10.28
2019-05-13T07:45:24.630Z,10.38
2019-05-13T07:47:54.646Z,10.37
2019-05-13T07:50:24.759Z,10.41
2019-05-13T07:52:54.832Z,10.33
2019-05-13T07:55:24.928Z,10.41
2019-05-13T07:57:55.009Z,10.38
2019-05-13T08:00:25.105Z,10.59
2019-05-13T08:02:55.169Z,10.68
2019-05-13T08:05:25.256Z,10.45
2019-05-13T08:07:55.326Z,10.36
2019-05-13T08:10:25.642Z,10.61
2019-05-13T08:12:55.704Z,10.66
2019-05-13T08:15:25.798Z,10.65
2019-05-13T08:17:55.878Z,10.90
2019-05-13T08:20:25.961Z,11.08
2019-05-13T08:22:56.030Z,11.18
2019-05-13T08:25:26.144Z,10.90
2019-05-13T08:27:56.212Z,10.80
2019-05-13T08:30:26.312Z,10.85
2019-05-13T08:32:56.396Z,10.81
2019-05-13T08:35:26.502Z,10.81
2019-05-13T08:37:56.573Z,11.04
2019-05-13T08:40:26.769Z,11.08
2019-05-13T08:42:56.840Z,11.10
2019-05-13T08:45:26.963Z,11.08
2019-05-13T08:47:57.029Z,11.24
2019-05-13T08:50:27.136Z,11.20
2019-05-13T08:52:57.206Z,11.12
2019-05-13T08:55:27.310Z,10.91
2019-05-13T08:57:57.391Z,11.04
2019-05-13T09:00:54.254Z,11.26
2019-05-13T09:03:25.124Z,11.32
2019-05-13T09:05:55.535Z,11.24
2019-05-13T09:08:27.411Z,11.06
2019-05-13T09:10:57.557Z,10.92
2019-05-13T09:13:27.663Z,11.12
2019-05-13T09:15:57.778Z,11.24
2019-05-13T09:18:27.840Z,11.39
2019-05-13T09:20:57.946Z,11.31
2019-05-13T09:23:28.029Z,11.32
2019-05-13T09:25:58.126Z,11.35
2019-05-13T09:28:28.600Z,11.37
2019-05-13T09:30:58.686Z,11.11
2019-05-13T09:33:28.779Z,11.32
2019-05-13T09:35:58.867Z,11.48
2019-05-13T09:38:28.946Z,11.62
2019-05-13T09:41:01.699Z,11.84
2019-05-13T09:43:31.468Z,11.77
2019-05-13T09:46:02.577Z,11.57
2019-05-13T09:48:32.737Z,11.52
2019-05-13T09:51:02.837Z,11.72
2019-05-13T09:53:32.927Z,12.09
2019-05-13T09:56:03.031Z,12.15
2019-05-13T09:58:33.372Z,12.12
2019-05-13T10:01:03.811Z,12.23
2019-05-13T10:03:33.881Z,12.34
2019-05-13T10:06:03.990Z,12.54
2019-05-13T10:08:34.072Z,12.56
2019-05-13T10:11:04.178Z,12.66
2019-05-13T10:13:34.247Z,12.27
2019-05-13T10:16:04.359Z,12.38
2019-05-13T10:18:34.419Z,12.42
2019-05-13T10:21:05.021Z,12.53
2019-05-13T10:23:35.100Z,12.89
2019-05-13T10:26:08.121Z,13.35
2019-05-13T10:28:38.655Z,13.48
2019-05-13T10:31:11.780Z,13.85
2019-05-13T10:33:41.991Z,13.68
2019-05-13T10:36:12.897Z,13.48
2019-05-13T10:38:42.966Z,13.23
2019-05-13T10:41:13.010Z,12.96
2019-05-13T10:43:44.325Z,12.84
2019-05-13T10:46:14.689Z,12.87
2019-05-13T10:48:44.815Z,12.80
2019-05-13T10:51:14.958Z,12.61
2019-05-13T10:53:45.057Z,12.69
2019-05-13T10:56:15.142Z,13.01
2019-05-13T10:58:45.429Z,13.27
2019-05-13T11:01:15.518Z,13.43
2019-05-13T11:03:45.603Z,13.68
2019-05-13T11:06:15.670Z,13.39
2019-05-13T11:08:45.783Z,13.01
2019-05-13T11:11:15.867Z,12.79
2019-05-13T11:13:55.068Z,12.66
2019-05-13T11:16:17.732Z,12.55
2019-05-13T11:18:47.842Z,12.71
2019-05-13T11:21:17.925Z,12.94
2019-05-13T11:23:48.021Z,13.14
2019-05-13T11:26:18.102Z,13.14
2019-05-13T11:28:48.263Z,13.45
2019-05-13T11:31:18.346Z,13.61
2019-05-13T11:33:48.433Z,14.09
2019-05-13T11:36:19.482Z,14.41
2019-05-13T11:38:49.788Z,14.48
2019-05-13T11:41:22.855Z,14.17
2019-05-13T11:44:11.888Z,13.96
2019-05-13T11:46:25.181Z,13.66
2019-05-13T11:48:55.633Z,13.49
2019-05-13T11:51:25.758Z,13.27
2019-05-13T11:53:55.811Z,13.05
2019-05-13T11:56:26.180Z,12.89
2019-05-13T11:58:56.257Z,12.81
2019-05-13T12:01:26.390Z,12.92
2019-05-13T12:03:56.424Z,13.17
2019-05-13T12:06:26.514Z,13.38
2019-05-13T12:08:56.557Z,13.96
2019-05-13T12:11:26.641Z,14.18
2019-05-13T12:13:56.673Z,14.40
2019-05-13T12:16:26.770Z,14.10
2019-05-13T12:18:56.825Z,13.84
2019-05-13T12:21:26.922Z,13.61
2019-05-13T12:23:57.254Z,13.72
2019-05-13T12:26:27.351Z,13.71
2019-05-13T12:28:57.382Z,14.02
2019-05-13T12:31:27.484Z,14.41
2019-05-13T12:33:57.603Z,14.03
2019-05-13T12:36:27.649Z,13.90
2019-05-13T12:38:57.802Z,14.15
2019-05-13T12:41:27.871Z,13.93
2019-05-13T12:43:57.954Z,14.10
2019-05-13T12:46:28.006Z,14.32
2019-05-13T12:48:58.109Z,14.51
2019-05-13T12:51:28.429Z,14.40
2019-05-13T12:53:58.524Z,14.21
2019-05-13T12:56:28.569Z,14.21
2019-05-13T12:58:58.680Z,14.26
2019-05-13T13:01:28.711Z,14.19
2019-05-13T13:03:59.923Z,14.11
2019-05-13T13:06:39.586Z,13.91
2019-05-13T13:09:02.519Z,13.84
2019-05-13T13:11:32.681Z,13.69
2019-05-13T13:14:05.851Z,13.53
2019-05-13T13:19:06.494Z,13.39
2019-05-13T13:21:37.690Z,13.32
2019-05-13T13:24:08.141Z,13.23
2019-05-13T13:26:38.179Z,13.29
2019-05-13T13:29:08.265Z,13.26
2019-05-13T13:31:38.311Z,13.29
2019-05-13T13:34:16.332Z,13.32
2019-05-13T13:36:45.253Z,13.39
2019-05-13T13:39:14.745Z,13.17
2019-05-13T13:41:43.995Z,13.05
2019-05-13T13:44:14.087Z,12.76
2019-05-13T13:46:49.242Z,12.69
2019-05-13T13:49:15.925Z,12.56
2019-05-13T13:51:46.034Z,12.32
2019-05-13T13:54:16.154Z,12.10
2019-05-13T13:56:46.255Z,12.24
2019-05-13T13:59:16.474Z,12.03
2019-05-13T14:01:46.596Z,12.06
2019-05-13T14:04:17.748Z,12.22
2019-05-13T14:06:52.388Z,13.44
2019-05-13T14:09:22.408Z,12.49
2019-05-13T14:11:52.110Z,12.65
2019-05-13T14:14:22.252Z,12.70
2019-05-13T14:16:52.351Z,12.73
2019-05-13T14:19:22.428Z,12.93
2019-05-13T14:21:52.776Z,13.13
2019-05-13T14:24:22.892Z,13.25
2019-05-13T14:26:53.023Z,13.35
2019-05-13T14:29:37.410Z,13.47
2019-05-13T14:31:55.397Z,13.47
2019-05-13T14:34:25.509Z,13.81
2019-05-13T14:36:55.580Z,13.85
2019-05-13T14:39:25.681Z,13.69
2019-05-13T14:41:55.755Z,13.59
2019-05-13T14:44:25.869Z,13.67
2019-05-13T14:46:55.942Z,13.92
2019-05-13T14:49:26.052Z,13.90
2019-05-13T14:51:56.558Z,14.11
2019-05-13T14:54:26.729Z,14.06
2019-05-13T14:56:57.069Z,14.14
2019-05-13T14:59:27.227Z,13.96
2019-05-13T15:01:57.299Z,14.01
2019-05-13T15:04:27.395Z,14.14
2019-05-13T15:06:57.511Z,13.92
2019-05-13T15:09:27.607Z,13.91
2019-05-13T15:11:57.691Z,13.50
2019-05-13T15:14:27.800Z,13.44
2019-05-13T15:17:02.710Z,13.38
2019-05-13T15:19:31.689Z,13.35
2019-05-13T15:22:01.431Z,13.43
2019-05-13T15:24:32.449Z,13.47
2019-05-13T15:27:02.678Z,13.53
2019-05-13T15:29:32.719Z,13.57
2019-05-13T15:32:05.634Z,13.60
2019-05-13T15:34:35.679Z,13.54
2019-05-13T15:37:05.977Z,13.42
2019-05-13T15:39:36.211Z,13.35
2019-05-13T15:42:06.403Z,13.29
2019-05-13T15:44:36.450Z,13.14
2019-05-13T15:47:22.435Z,12.95
2019-05-13T15:49:38.277Z,12.62
2019-05-13T15:52:08.376Z,12.50
2019-05-13T15:54:38.420Z,12.48
2019-05-13T15:57:08.517Z,12.41
2019-05-13T15:59:38.556Z,12.46
2019-05-13T16:02:08.641Z,12.39
2019-05-13T16:04:49.922Z,12.40
2019-05-13T16:07:12.216Z,12.51
2019-05-13T16:09:42.468Z,12.59
2019-05-13T16:12:12.570Z,12.80
2019-05-13T16:14:42.598Z,12.94
2019-05-13T16:17:12.893Z,13.21
2019-05-13T16:19:42.942Z,13.23
2019-05-13T16:22:13.034Z,13.27
2019-05-13T16:24:43.084Z,13.28
2019-05-13T16:27:13.110Z,13.29
2019-05-13T16:29:46.749Z,13.26
2019-05-13T16:32:17.360Z,13.21
2019-05-13T16:34:47.477Z,13.06
2019-05-13T16:37:17.515Z,12.99
2019-05-13T16:39:47.612Z,12.94
2019-05-13T16:42:17.874Z,12.81
2019-05-13T16:44:48.252Z,12.85
2019-05-13T16:47:21.692Z,12.90
2019-05-13T16:49:52.111Z,12.86
2019-05-13T16:52:22.221Z,12.90
2019-05-13T16:54:56.510Z,12.96
2019-05-13T16:57:27.196Z,12.98
2019-05-13T16:59:57.336Z,12.99
2019-05-13T17:02:27.397Z,13.11
2019-05-13T17:04:57.593Z,13.03
2019-05-13T17:07:27.868Z,13.05
2019-05-13T17:10:00.232Z,13.02
2019-05-13T17:12:36.681Z,12.95
2019-05-13T17:15:10.728Z,12.76
2019-05-13T17:17:42.305Z,12.70
2019-05-13T17:20:13.237Z,12.63
2019-05-13T17:22:43.352Z,12.53
2019-05-13T17:25:14.034Z,12.47
2019-05-13T17:27:56.038Z,12.40
2019-05-13T17:31:04.253Z,12.33
2019-05-13T17:36:59.084Z,12.18
2019-05-13T17:39:47.805Z,12.09
2019-05-13T17:42:14.587Z,12.00
2019-05-13T17:44:46.443Z,11.97
2019-05-13T17:47:16.833Z,11.92
2019-05-13T17:49:47.075Z,11.86
2019-05-13T17:52:17.325Z,11.79
2019-05-13T17:54:47.568Z,11.74
2019-05-13T17:57:18.106Z,11.75
2019-05-13T17:59:48.292Z,11.73
2019-05-13T18:02:18.653Z,11.72
2019-05-13T18:04:49.143Z,11.68
2019-05-13T18:07:21.397Z,11.68
2019-05-13T18:09:52.102Z,11.63
2019-05-13T18:12:22.483Z,11.64
2019-05-13T18:14:52.810Z,11.65
2019-05-13T18:17:23.495Z,11.62
2019-05-13T18:19:53.757Z,11.62
2019-05-13T18:22:24.433Z,11.60
2019-05-13T18:24:54.904Z,11.56
2019-05-13T18:27:25.533Z,11.49
2019-05-13T18:29:55.977Z,11.46
2019-05-13T18:32:26.455Z,11.47
2019-05-13T18:34:57.185Z,11.39
2019-05-13T18:37:27.487Z,11.32
2019-05-13T18:39:58.166Z,11.30
2019-05-13T18:42:28.455Z,11.20
2019-05-13T18:44:58.761Z,11.13
2019-05-13T18:47:31.605Z,11.07
2019-05-13T18:50:02.539Z,10.97
2019-05-13T18:52:32.872Z,10.91
2019-05-13T18:55:03.120Z,10.86
2019-05-13T18:57:33.523Z,10.75
2019-05-13T19:00:05.045Z,10.70
2019-05-13T19:02:41.326Z,10.62
2019-05-13T19:05:09.033Z,10.61
2019-05-13T19:07:41.724Z,10.54
2019-05-13T19:10:11.853Z,10.46
2019-05-13T19:12:42.377Z,10.41
2019-05-13T19:15:13.225Z,10.32
2019-05-13T19:17:43.998Z,10.24
2019-05-13T19:20:14.383Z,10.21
2019-05-13T19:22:45.503Z,10.13
2019-05-13T19:25:17.279Z,10.02
2019-05-13T19:27:47.494Z,10.03
2019-05-13T19:30:18.174Z,9.99
2019-05-13T19:32:48.455Z,9.94
2019-05-13T19:35:18.853Z,9.85
2019-05-13T19:37:51.423Z,9.74
2019-05-13T19:40:22.070Z,9.68
2019-05-13T19:42:53.316Z,9.57
2019-05-13T19:48:34.239Z,9.48
2019-05-13T19:51:04.588Z,9.49
2019-05-13T19:53:35.127Z,9.43
2019-05-13T19:56:05.337Z,9.36
2019-05-13T19:58:35.541Z,9.27
2019-05-13T20:01:06.218Z,9.20
2019-05-13T20:03:36.628Z,9.10
2019-05-13T20:06:07.059Z,9.04
2019-05-13T20:08:37.412Z,9.02
2019-05-13T20:11:08.040Z,8.98
2019-05-13T20:13:38.535Z,8.95
2019-05-13T20:16:08.982Z,8.87
2019-05-13T20:18:44.229Z,8.91
2019-05-13T20:21:14.466Z,8.84
2019-05-13T20:23:46.490Z,8.86
2019-05-13T20:26:17.050Z,8.77
2019-05-13T20:28:47.682Z,8.74
2019-05-13T20:31:18.285Z,8.68
2019-05-13T20:33:51.611Z,8.64
2019-05-13T20:39:16.305Z,8.56
2019-05-13T20:42:01.555Z,8.50
2019-05-13T20:45:48.507Z,8.44
2019-05-13T20:47:37.568Z,8.38
2019-05-13T20:53:13.419Z,8.33
2019-05-13T20:55:52.505Z,8.25
2019-05-13T20:58:31.560Z,8.19
2019-05-13T21:01:13.843Z,8.12
2019-05-13T21:03:43.895Z,8.09
2019-05-13T21:06:15.588Z,8.05
2019-05-13T21:08:47.426Z,8.02
2019-05-13T21:11:17.725Z,8.03
2019-05-13T21:13:47.973Z,8.04
2019-05-13T21:16:21.914Z,8.04
2019-05-13T21:18:52.095Z,7.98
2019-05-13T21:21:22.294Z,7.93
2019-05-13T21:23:52.405Z,7.97
2019-05-13T21:26:22.614Z,7.90
2019-05-13T21:28:52.712Z,7.83
2019-05-13T21:31:22.740Z,7.80
2019-05-13T21:33:52.820Z,7.74
2019-05-13T21:36:22.860Z,7.67
2019-05-13T21:38:52.953Z,7.59
2019-05-13T21:41:22.979Z,7.56
2019-05-13T21:43:53.087Z,7.67
2019-05-13T21:46:23.117Z,7.64
2019-05-13T21:48:53.208Z,7.61
2019-05-13T21:51:23.252Z,7.51
2019-05-13T21:53:53.335Z,7.47
2019-05-13T21:56:23.397Z,7.42
2019-05-13T21:58:53.481Z,7.37
2019-05-13T22:01:23.634Z,7.33
2019-05-13T22:03:53.729Z,7.27
2019-05-13T22:06:23.781Z,7.28
2019-05-13T22:08:54.184Z,7.26
2019-05-13T22:11:24.204Z,7.20
2019-05-13T22:13:54.295Z,7.16
2019-05-13T22:16:24.356Z,7.13
2019-05-13T22:18:54.437Z,7.13
2019-05-13T22:21:24.563Z,7.17
2019-05-13T22:23:54.667Z,7.15
2019-05-13T22:26:24.732Z,7.11
2019-05-13T22:28:54.829Z,7.07
2019-05-13T22:31:24.889Z,7.01
2019-05-13T22:33:55.013Z,6.93
2019-05-13T22:36:25.084Z,6.89
2019-05-13T22:38:55.174Z,6.88
2019-05-13T22:41:25.261Z,6.87
2019-05-13T22:43:58.694Z,6.88
2019-05-13T22:46:27.128Z,6.84
2019-05-13T22:48:57.225Z,6.82
2019-05-13T22:51:27.300Z,6.74
2019-05-13T22:53:57.393Z,6.74
2019-05-13T22:56:27.470Z,6.69
2019-05-13T22:58:57.574Z,6.69
2019-05-13T23:01:27.640Z,6.67
2019-05-13T23:03:57.766Z,6.57
2019-05-13T23:06:27.941Z,6.52
2019-05-13T23:08:58.147Z,6.42
2019-05-13T23:11:28.232Z,6.42
2019-05-13T23:14:07.368Z,6.38
2019-05-13T23:16:31.606Z,6.33
2019-05-13T23:19:01.942Z,6.31
2019-05-13T23:21:31.974Z,6.28
2019-05-13T23:24:02.286Z,6.29
2019-05-13T23:26:32.422Z,6.28
2019-05-13T23:29:02.534Z,6.27
2019-05-13T23:31:32.586Z,6.26
2019-05-13T23:34:02.702Z,6.29
2019-05-13T23:36:32.733Z,6.30
2019-05-13T23:39:03.060Z,6.27
2019-05-13T23:41:33.089Z,6.25
2019-05-13T23:44:03.196Z,6.26
2019-05-13T23:46:33.244Z,6.21
2019-05-13T23:49:03.346Z,6.26
2019-05-13T23:51:33.381Z,6.27
2019-05-13T23:54:03.479Z,6.35
2019-05-13T23:56:33.530Z,6.38
2019-05-13T23:59:03.627Z,6.36
